sensor_id;sensor_type;location;lat;lon;timestamp;pressure;altitude;pressure_sealevel;temperature;humidity
69780;BME280;57052;55.602;38.096;2023-11-19T09:41:15;101127.63;;;-4.81;71.61
69780;BME280;57052;55.602;38.096;2023-11-19T09:43:42;101106.50;;;-4.81;71.60
69780;BME280;57052;55.602;38.096;2023-11-19T09:46:13;101107.28;;;-4.71;72.18
69780;BME280;57052;55.602;38.096;2023-11-19T09:48:39;101119.56;;;-4.44;72.81
69780;BME280;57052;55.602;38.096;2023-11-19T09:51:09;101118.22;;;-4.31;73.12
69780;BME280;57052;55.602;38.096;2023-11-19T09:53:37;101120.00;;;-4.14;73.06
69780;BME280;57052;55.602;38.096;2023-11-19T09:56:08;101095.09;;;-4.11;73.48
69780;BME280;57052;55.602;38.096;2023-11-19T09:58:34;101110.63;;;-3.82;73.22
69780;BME280;57052;55.602;38.096;2023-11-19T10:01:00;101110.09;;;-3.68;72.76
69780;BME280;57052;55.602;38.096;2023-11-19T10:03:33;101106.84;;;-3.54;72.46
69780;BME280;57052;55.602;38.096;2023-11-19T10:06:07;101091.16;;;-3.48;72.76
69780;BME280;57052;55.602;38.096;2023-11-19T10:08:33;101080.09;;;-3.43;71.57
69780;BME280;57052;55.602;38.096;2023-11-19T10:10:59;101082.00;;;-3.28;71.50
69780;BME280;57052;55.602;38.096;2023-11-19T10:13:28;101095.78;;;-3.16;71.33
69780;BME280;57052;55.602;38.096;2023-11-19T10:15:55;101093.63;;;-3.12;71.62
69780;BME280;57052;55.602;38.096;2023-11-19T10:18:46;101080.72;;;-3.15;68.93
69780;BME280;57052;55.602;38.096;2023-11-19T10:21:12;101086.88;;;-3.07;70.61
69780;BME280;57052;55.602;38.096;2023-11-19T10:23:52;101084.56;;;-3.02;69.97
69780;BME280;57052;55.602;38.096;2023-11-19T10:26:25;101082.59;;;-3.00;70.36
69780;BME280;57052;55.602;38.096;2023-11-19T10:28:51;101063.38;;;-3.02;70.42
69780;BME280;57052;55.602;38.096;2023-11-19T10:31:19;101079.47;;;-2.87;70.92
69780;BME280;57052;55.602;38.096;2023-11-19T10:33:46;101025.94;;;-3.15;70.72
69780;BME280;57052;55.602;38.096;2023-11-19T10:36:12;101074.38;;;-2.81;70.48
69780;BME280;57052;55.602;38.096;2023-11-19T10:38:39;101068.06;;;-2.80;70.54
69780;BME280;57052;55.602;38.096;2023-11-19T10:41:07;101055.13;;;-2.83;70.65
69780;BME280;57052;55.602;38.096;2023-11-19T10:43:43;101046.38;;;-2.91;69.08
69780;BME280;57052;55.602;38.096;2023-11-19T10:46:13;101066.78;;;-2.76;69.67
69780;BME280;57052;55.602;38.096;2023-11-19T10:48:40;101052.34;;;-2.81;69.33
69780;BME280;57052;55.602;38.096;2023-11-19T10:51:07;101063.28;;;-2.76;69.31
69780;BME280;57052;55.602;38.096;2023-11-19T10:53:37;101053.50;;;-2.84;68.47
69780;BME280;57052;55.602;38.096;2023-11-19T10:56:10;101065.63;;;-2.73;68.74
69780;BME280;57052;55.602;38.096;2023-11-19T10:58:36;101067.09;;;-2.71;69.69
69780;BME280;57052;55.602;38.096;2023-11-19T11:01:13;101056.31;;;-2.77;69.06
69780;BME280;57052;55.602;38.096;2023-11-19T11:03:41;101067.78;;;-2.69;69.02
69780;BME280;57052;55.602;38.096;2023-11-19T11:06:09;101064.59;;;-2.72;69.09
69780;BME280;57052;55.602;38.096;2023-11-19T11:08:39;101072.88;;;-2.67;68.89
69780;BME280;57052;55.602;38.096;2023-11-19T11:11:05;101063.94;;;-2.74;69.42
69780;BME280;57052;55.602;38.096;2023-11-19T11:13:36;101072.75;;;-2.66;69.12
69780;BME280;57052;55.602;38.096;2023-11-19T11:16:04;101073.22;;;-2.62;69.26
69780;BME280;57052;55.602;38.096;2023-11-19T11:18:33;101060.81;;;-2.70;69.03
69780;BME280;57052;55.602;38.096;2023-11-19T11:21:02;101062.94;;;-2.65;69.43
69780;BME280;57052;55.602;38.096;2023-11-19T11:29:01;101081.69;;;-2.58;66.35
69780;BME280;57052;55.602;38.096;2023-11-19T11:37:20;101077.06;;;-2.56;66.79
69780;BME280;57052;55.602;38.096;2023-11-19T11:39:49;101067.94;;;-2.54;67.66
69780;BME280;57052;55.602;38.096;2023-11-19T11:45:05;101055.69;;;-2.55;66.97
69780;BME280;57052;55.602;38.096;2023-11-19T11:50:12;101065.28;;;-2.54;67.26
69780;BME280;57052;55.602;38.096;2023-11-19T11:55:52;101041.59;;;-2.72;65.42
69780;BME280;57052;55.602;38.096;2023-11-19T11:58:30;101043.59;;;-2.66;67.17
69780;BME280;57052;55.602;38.096;2023-11-19T12:01:01;101068.09;;;-2.55;67.07
69780;BME280;57052;55.602;38.096;2023-11-19T12:03:28;101068.94;;;-2.55;67.09
69780;BME280;57052;55.602;38.096;2023-11-19T12:05:54;101059.47;;;-2.58;67.53
69780;BME280;57052;55.602;38.096;2023-11-19T12:08:25;101029.31;;;-2.73;66.45
69780;BME280;57052;55.602;38.096;2023-11-19T12:10:52;101055.00;;;-2.57;66.97
69780;BME280;57052;55.602;38.096;2023-11-19T12:13:19;101063.63;;;-2.55;67.41
69780;BME280;57052;55.602;38.096;2023-11-19T12:18:24;101033.81;;;-2.65;67.02
69780;BME280;57052;55.602;38.096;2023-11-19T12:20:50;101048.06;;;-2.58;66.75
69780;BME280;57052;55.602;38.096;2023-11-19T12:23:15;101047.72;;;-2.55;66.92
69780;BME280;57052;55.602;38.096;2023-11-19T12:25:41;101039.63;;;-2.62;66.38
69780;BME280;57052;55.602;38.096;2023-11-19T12:28:12;101041.59;;;-2.55;66.54
69780;BME280;57052;55.602;38.096;2023-11-19T12:30:38;101031.34;;;-2.58;66.40
69780;BME280;57052;55.602;38.096;2023-11-19T12:33:08;101021.72;;;-2.60;66.75
69780;BME280;57052;55.602;38.096;2023-11-19T12:35:47;101020.75;;;-2.58;65.37
69780;BME280;57052;55.602;38.096;2023-11-19T12:38:23;101006.16;;;-2.71;65.52
69780;BME280;57052;55.602;38.096;2023-11-19T12:43:30;101008.13;;;-2.65;67.00
69780;BME280;57052;55.602;38.096;2023-11-19T12:46:16;101016.59;;;-2.61;65.74
69780;BME280;57052;55.602;38.096;2023-11-19T12:48:42;101007.16;;;-2.64;66.73
69780;BME280;57052;55.602;38.096;2023-11-19T12:51:11;100994.75;;;-2.71;66.71
69780;BME280;57052;55.602;38.096;2023-11-19T12:53:52;101010.47;;;-2.62;65.64
69780;BME280;57052;55.602;38.096;2023-11-19T12:56:24;101006.84;;;-2.61;66.51
69780;BME280;57052;55.602;38.096;2023-11-19T12:58:50;101006.84;;;-2.61;66.83
69780;BME280;57052;55.602;38.096;2023-11-19T13:01:17;101000.69;;;-2.61;66.45
69780;BME280;57052;55.602;38.096;2023-11-19T13:03:44;101000.69;;;-2.61;66.22
69780;BME280;57052;55.602;38.096;2023-11-19T13:06:14;100999.88;;;-2.62;65.75
69780;BME280;57052;55.602;38.096;2023-11-19T13:08:44;100981.31;;;-2.62;66.06
69780;BME280;57052;55.602;38.096;2023-11-19T13:11:12;100983.00;;;-2.61;65.95
69780;BME280;57052;55.602;38.096;2023-11-19T13:13:57;100973.38;;;-2.70;63.83
69780;BME280;57052;55.602;38.096;2023-11-19T13:16:25;100954.81;;;-2.78;65.83
69780;BME280;57052;55.602;38.096;2023-11-19T13:18:51;100976.34;;;-2.65;65.98
69780;BME280;57052;55.602;38.096;2023-11-19T13:21:17;100984.63;;;-2.68;65.78
69780;BME280;57052;55.602;38.096;2023-11-19T13:23:43;100988.28;;;-2.69;66.14
69780;BME280;57052;55.602;38.096;2023-11-19T13:26:10;100971.22;;;-2.74;65.91
69780;BME280;57052;55.602;38.096;2023-11-19T13:28:36;100974.69;;;-2.74;65.86
69780;BME280;57052;55.602;38.096;2023-11-19T13:31:02;100983.31;;;-2.72;65.88
69780;BME280;57052;55.602;38.096;2023-11-19T13:33:28;100974.88;;;-2.83;65.33
69780;BME280;57052;55.602;38.096;2023-11-19T13:35:55;100997.53;;;-2.73;65.01
69780;BME280;57052;55.602;38.096;2023-11-19T13:38:20;100974.34;;;-2.87;66.30
69780;BME280;57052;55.602;38.096;2023-11-19T13:40:46;100986.97;;;-2.81;65.25
69780;BME280;57052;55.602;38.096;2023-11-19T13:43:12;100981.97;;;-2.84;65.14
69780;BME280;57052;55.602;38.096;2023-11-19T13:45:37;100997.88;;;-2.76;65.22
69780;BME280;57052;55.602;38.096;2023-11-19T13:48:03;100998.22;;;-2.79;65.33
69780;BME280;57052;55.602;38.096;2023-11-19T13:50:28;100992.25;;;-2.81;65.19
69780;BME280;57052;55.602;38.096;2023-11-19T13:52:54;101001.53;;;-2.77;65.31
69780;BME280;57052;55.602;38.096;2023-11-19T13:55:20;100995.56;;;-2.79;65.24
69780;BME280;57052;55.602;38.096;2023-11-19T13:57:45;100994.56;;;-2.78;64.77
69780;BME280;57052;55.602;38.096;2023-11-19T14:00:14;100996.53;;;-2.80;65.43
69780;BME280;57052;55.602;38.096;2023-11-19T14:02:42;100994.06;;;-2.81;65.14
69780;BME280;57052;55.602;38.096;2023-11-19T14:05:11;100995.88;;;-2.82;64.62
69780;BME280;57052;55.602;38.096;2023-11-19T14:07:37;100994.41;;;-2.84;65.07
69780;BME280;57052;55.602;38.096;2023-11-19T14:10:03;100954.13;;;-3.12;65.03
69780;BME280;57052;55.602;38.096;2023-11-19T14:12:31;100995.53;;;-2.87;64.94
69780;BME280;57052;55.602;38.096;2023-11-19T14:14:58;100998.72;;;-2.83;64.95
69780;BME280;57052;55.602;38.096;2023-11-19T14:17:23;100995.22;;;-2.84;64.81
69780;BME280;57052;55.602;38.096;2023-11-19T14:19:50;100994.41;;;-2.84;64.81
69780;BME280;57052;55.602;38.096;2023-11-19T14:22:16;100990.75;;;-2.83;64.84
69780;BME280;57052;55.602;38.096;2023-11-19T14:24:42;100984.78;;;-2.85;65.00
69780;BME280;57052;55.602;38.096;2023-11-19T14:27:09;100967.72;;;-2.99;64.78
69780;BME280;57052;55.602;38.096;2023-11-19T14:29:35;100989.41;;;-2.87;64.71
69780;BME280;57052;55.602;38.096;2023-11-19T14:32:02;100988.59;;;-2.88;64.52
69780;BME280;57052;55.602;38.096;2023-11-19T14:34:31;100980.81;;;-2.89;64.67
69780;BME280;57052;55.602;38.096;2023-11-19T14:36:58;100981.78;;;-2.90;64.94
69780;BME280;57052;55.602;38.096;2023-11-19T14:39:24;100982.63;;;-2.90;64.42
69780;BME280;57052;55.602;38.096;2023-11-19T14:41:50;100980.81;;;-2.89;64.92
69780;BME280;57052;55.602;38.096;2023-11-19T14:44:17;100912.75;;;-3.29;64.97
69780;BME280;57052;55.602;38.096;2023-11-19T14:46:43;100973.38;;;-2.94;64.60
69780;BME280;57052;55.602;38.096;2023-11-19T14:49:10;100979.16;;;-2.90;64.91
69780;BME280;57052;55.602;38.096;2023-11-19T14:51:36;100987.09;;;-2.90;64.71
69780;BME280;57052;55.602;38.096;2023-11-19T14:54:04;100987.44;;;-2.93;64.40
69780;BME280;57052;55.602;38.096;2023-11-19T14:56:29;100970.88;;;-2.95;64.33
69780;BME280;57052;55.602;38.096;2023-11-19T14:58:55;100957.13;;;-3.07;64.70
69780;BME280;57052;55.602;38.096;2023-11-19T15:01:21;100953.97;;;-3.10;64.27
69780;BME280;57052;55.602;38.096;2023-11-19T15:03:46;100962.75;;;-3.02;64.21
69780;BME280;57052;55.602;38.096;2023-11-19T15:06:12;100971.34;;;-3.00;64.53
69780;BME280;57052;55.602;38.096;2023-11-19T15:08:37;100957.63;;;-3.11;63.94
69780;BME280;57052;55.602;38.096;2023-11-19T15:11:03;100973.03;;;-2.99;64.21
69780;BME280;57052;55.602;38.096;2023-11-19T15:13:33;100973.03;;;-2.99;64.18
69780;BME280;57052;55.602;38.096;2023-11-19T15:15:59;100966.25;;;-3.01;64.16
69780;BME280;57052;55.602;38.096;2023-11-19T15:18:24;100966.72;;;-2.98;63.86
69780;BME280;57052;55.602;38.096;2023-11-19T15:20:50;100968.56;;;-2.98;63.87
69780;BME280;57052;55.602;38.096;2023-11-19T15:23:16;100954.31;;;-2.97;63.90
69780;BME280;57052;55.602;38.096;2023-11-19T15:25:42;100951.66;;;-2.97;64.20
69780;BME280;57052;55.602;38.096;2023-11-19T15:28:08;100942.75;;;-2.96;64.38
69780;BME280;57052;55.602;38.096;2023-11-19T15:30:35;100943.56;;;-2.96;64.57
69780;BME280;57052;55.602;38.096;2023-11-19T15:33:00;100944.38;;;-2.95;64.21
69780;BME280;57052;55.602;38.096;2023-11-19T15:35:26;100921.69;;;-2.98;64.44
69780;BME280;57052;55.602;38.096;2023-11-19T15:37:52;100933.97;;;-2.97;64.72
69780;BME280;57052;55.602;38.096;2023-11-19T15:40:17;100922.38;;;-2.96;64.27
69780;BME280;57052;55.602;38.096;2023-11-19T15:42:44;100919.41;;;-3.01;64.29
69780;BME280;57052;55.602;38.096;2023-11-19T15:45:11;100926.19;;;-2.98;64.59
69780;BME280;57052;55.602;38.096;2023-11-19T15:47:37;100920.56;;;-3.03;64.47
69780;BME280;57052;55.602;38.096;2023-11-19T15:50:05;100935.78;;;-2.97;63.94
69780;BME280;57052;55.602;38.096;2023-11-19T15:52:32;100918.91;;;-3.04;64.15
69780;BME280;57052;55.602;38.096;2023-11-19T15:54:58;100931.50;;;-2.98;64.17
69780;BME280;57052;55.602;38.096;2023-11-19T15:57:23;100927.34;;;-3.01;63.68
69780;BME280;57052;55.602;38.096;2023-11-19T15:59:49;100928.84;;;-2.98;63.88
69780;BME280;57052;55.602;38.096;2023-11-19T16:02:16;100923.34;;;-3.05;63.95
69780;BME280;57052;55.602;38.096;2023-11-19T16:04:42;100916.91;;;-3.10;64.08
69780;BME280;57052;55.602;38.096;2023-11-19T16:07:13;100914.75;;;-3.07;63.94
69780;BME280;57052;55.602;38.096;2023-11-19T16:09:38;100923.88;;;-3.01;64.05
69780;BME280;57052;55.602;38.096;2023-11-19T16:12:04;100912.94;;;-2.98;63.62
69780;BME280;57052;55.602;38.096;2023-11-19T16:14:30;100920.91;;;-2.98;64.16
69780;BME280;57052;55.602;38.096;2023-11-19T16:16:55;100911.13;;;-3.06;63.74
69780;BME280;57052;55.602;38.096;2023-11-19T16:19:21;100910.78;;;-3.03;63.91
69780;BME280;57052;55.602;38.096;2023-11-19T16:21:47;100920.38;;;-3.02;63.99
69780;BME280;57052;55.602;38.096;2023-11-19T16:24:12;100909.28;;;-3.05;63.77
69780;BME280;57052;55.602;38.096;2023-11-19T16:26:38;100909.13;;;-3.04;63.24
69780;BME280;57052;55.602;38.096;2023-11-19T16:29:03;100895.56;;;-3.17;63.43
69780;BME280;57052;55.602;38.096;2023-11-19T16:31:32;100896.22;;;-3.15;63.51
69780;BME280;57052;55.602;38.096;2023-11-19T16:33:58;100901.19;;;-3.12;63.37
69780;BME280;57052;55.602;38.096;2023-11-19T16:36:25;100910.94;;;-3.04;63.33
69780;BME280;57052;55.602;38.096;2023-11-19T16:38:51;100912.44;;;-3.02;63.97
69780;BME280;57052;55.602;38.096;2023-11-19T16:41:20;100892.41;;;-3.12;63.11
69780;BME280;57052;55.602;38.096;2023-11-19T16:43:51;100898.53;;;-3.12;63.33
69780;BME280;57052;55.602;38.096;2023-11-19T16:46:20;100899.19;;;-3.10;63.13
69780;BME280;57052;55.602;38.096;2023-11-19T16:48:46;100908.13;;;-3.03;63.79
69780;BME280;57052;55.602;38.096;2023-11-19T16:51:14;100898.22;;;-3.09;63.45
69780;BME280;57052;55.602;38.096;2023-11-19T16:53:47;100911.13;;;-3.06;62.77
69780;BME280;57052;55.602;38.096;2023-11-19T16:56:13;100904.16;;;-3.07;63.14
69780;BME280;57052;55.602;38.096;2023-11-19T16:58:40;100888.13;;;-3.13;62.94
69780;BME280;57052;55.602;38.096;2023-11-19T17:01:13;100876.88;;;-3.23;62.89
69780;BME280;57052;55.602;38.096;2023-11-19T17:03:42;100894.22;;;-3.13;63.48
69780;BME280;57052;55.602;38.096;2023-11-19T17:06:09;100884.00;;;-3.16;63.37
69780;BME280;57052;55.602;38.096;2023-11-19T17:08:35;100880.16;;;-3.21;63.13
69780;BME280;57052;55.602;38.096;2023-11-19T17:11:04;100890.59;;;-3.20;63.35
69780;BME280;57052;55.602;38.096;2023-11-19T17:13:33;100894.25;;;-3.21;63.38
69780;BME280;57052;55.602;38.096;2023-11-19T17:15:59;100888.25;;;-3.23;62.90
69780;BME280;57052;55.602;38.096;2023-11-19T17:18:25;100884.94;;;-3.25;63.20
69780;BME280;57052;55.602;38.096;2023-11-19T17:20:51;100882.16;;;-3.32;62.87
69780;BME280;57052;55.602;38.096;2023-11-19T17:23:18;100875.19;;;-3.33;63.14
69780;BME280;57052;55.602;38.096;2023-11-19T17:25:44;100870.72;;;-3.40;63.10
69780;BME280;57052;55.602;38.096;2023-11-19T17:28:10;100888.91;;;-3.37;62.84
69780;BME280;57052;55.602;38.096;2023-11-19T17:30:36;100882.13;;;-3.40;63.09
69780;BME280;57052;55.602;38.096;2023-11-19T17:33:03;100871.38;;;-3.46;62.97
69780;BME280;57052;55.602;38.096;2023-11-19T17:35:31;100884.13;;;-3.42;62.95
69780;BME280;57052;55.602;38.096;2023-11-19T17:37:56;100875.34;;;-3.42;63.04
69780;BME280;57052;55.602;38.096;2023-11-19T17:40:22;100854.00;;;-3.57;63.16
69780;BME280;57052;55.602;38.096;2023-11-19T17:42:49;100863.13;;;-3.51;62.89
69780;BME280;57052;55.602;38.096;2023-11-19T17:45:15;100848.03;;;-3.67;62.89
69780;BME280;57052;55.602;38.096;2023-11-19T17:47:41;100852.50;;;-3.67;62.18
69780;BME280;57052;55.602;38.096;2023-11-19T17:50:07;100871.53;;;-3.56;62.82
69780;BME280;57052;55.602;38.096;2023-11-19T17:52:35;100863.38;;;-3.70;62.51
69780;BME280;57052;55.602;38.096;2023-11-19T17:55:00;100877.28;;;-3.60;62.58
69780;BME280;57052;55.602;38.096;2023-11-19T17:57:30;100873.00;;;-3.61;62.87
69780;BME280;57052;55.602;38.096;2023-11-19T17:59:56;100873.00;;;-3.61;63.10
69780;BME280;57052;55.602;38.096;2023-11-19T18:02:22;100876.63;;;-3.62;62.77
69780;BME280;57052;55.602;38.096;2023-11-19T18:04:49;100871.34;;;-3.62;62.83
69780;BME280;57052;55.602;38.096;2023-11-19T18:07:18;100860.41;;;-3.75;62.39
69780;BME280;57052;55.602;38.096;2023-11-19T18:09:46;100861.56;;;-3.70;63.20
69780;BME280;57052;55.602;38.096;2023-11-19T18:12:12;100867.38;;;-3.66;62.78
69780;BME280;57052;55.602;38.096;2023-11-19T18:14:41;100879.28;;;-3.62;62.97
69780;BME280;57052;55.602;38.096;2023-11-19T18:17:06;100878.63;;;-3.64;63.05
69780;BME280;57052;55.602;38.096;2023-11-19T18:19:32;100879.94;;;-3.60;63.14
69780;BME280;57052;55.602;38.096;2023-11-19T18:21:58;100871.34;;;-3.62;62.81
69780;BME280;57052;55.602;38.096;2023-11-19T18:24:28;100869.88;;;-3.57;62.43
69780;BME280;57052;55.602;38.096;2023-11-19T18:26:56;100876.66;;;-3.54;62.48
69780;BME280;57052;55.602;38.096;2023-11-19T18:29:22;100853.97;;;-3.65;62.41
69780;BME280;57052;55.602;38.096;2023-11-19T18:31:47;100869.38;;;-3.52;63.14
69780;BME280;57052;55.602;38.096;2023-11-19T18:34:14;100846.69;;;-3.63;62.33
69780;BME280;57052;55.602;38.096;2023-11-19T18:36:40;100873.38;;;-3.48;62.82
69780;BME280;57052;55.602;38.096;2023-11-19T18:39:06;100873.03;;;-3.45;63.15
69780;BME280;57052;55.602;38.096;2023-11-19T18:41:37;100872.88;;;-3.44;62.48
69780;BME280;57052;55.602;38.096;2023-11-19T18:44:03;100878.66;;;-3.40;62.98
69780;BME280;57052;55.602;38.096;2023-11-19T18:46:29;100875.03;;;-3.39;63.02
69780;BME280;57052;55.602;38.096;2023-11-19T18:48:55;100868.72;;;-3.38;62.69
69780;BME280;57052;55.602;38.096;2023-11-19T18:51:23;100858.50;;;-3.41;62.48
69780;BME280;57052;55.602;38.096;2023-11-19T18:53:49;100861.47;;;-3.36;62.87
69780;BME280;57052;55.602;38.096;2023-11-19T18:56:15;100839.63;;;-3.46;63.04
69780;BME280;57052;55.602;38.096;2023-11-19T18:58:42;100879.84;;;-3.27;62.44
69780;BME280;57052;55.602;38.096;2023-11-19T19:01:08;100877.66;;;-3.23;63.12
69780;BME280;57052;55.602;38.096;2023-11-19T19:03:34;100872.22;;;-3.21;62.72
69780;BME280;57052;55.602;38.096;2023-11-19T19:06:02;100881.66;;;-3.19;62.75
69780;BME280;57052;55.602;38.096;2023-11-19T19:08:30;100881.50;;;-3.17;62.95
69780;BME280;57052;55.602;38.096;2023-11-19T19:10:58;100869.59;;;-3.21;62.80
69780;BME280;57052;55.602;38.096;2023-11-19T19:13:24;100852.72;;;-3.29;62.78
69780;BME280;57052;55.602;38.096;2023-11-19T19:15:50;100869.41;;;-3.20;62.42
69780;BME280;57052;55.602;38.096;2023-11-19T19:18:16;100865.13;;;-3.21;62.59
69780;BME280;57052;55.602;38.096;2023-11-19T19:20:43;100868.56;;;-3.20;63.26
69780;BME280;57052;55.602;38.096;2023-11-19T19:23:12;100873.72;;;-3.19;62.67
69780;BME280;57052;55.602;38.096;2023-11-19T19:25:38;100883.63;;;-3.13;63.27
69780;BME280;57052;55.602;38.096;2023-11-19T19:28:03;100877.69;;;-3.15;62.87
69780;BME280;57052;55.602;38.096;2023-11-19T19:30:32;100881.66;;;-3.11;63.22
69780;BME280;57052;55.602;38.096;2023-11-19T19:32:57;100878.00;;;-3.10;63.29
69780;BME280;57052;55.602;38.096;2023-11-19T19:35:24;100884.97;;;-3.09;62.94
69780;BME280;57052;55.602;38.096;2023-11-19T19:37:57;100881.50;;;-3.09;63.20
69780;BME280;57052;55.602;38.096;2023-11-19T19:40:25;100864.78;;;-3.18;63.34
69780;BME280;57052;55.602;38.096;2023-11-19T19:42:51;100876.19;;;-3.09;63.36
69780;BME280;57052;55.602;38.096;2023-11-19T19:45:17;100878.84;;;-3.09;63.56
69780;BME280;57052;55.602;38.096;2023-11-19T19:47:42;100893.06;;;-3.10;63.91
69780;BME280;57052;55.602;38.096;2023-11-19T19:50:09;100881.66;;;-3.11;64.10
69780;BME280;57052;55.602;38.096;2023-11-19T19:52:39;100887.13;;;-3.12;63.67
69780;BME280;57052;55.602;38.096;2023-11-19T19:55:06;100888.13;;;-3.13;63.99
69780;BME280;57052;55.602;38.096;2023-11-19T19:57:33;100874.56;;;-3.18;64.08
69780;BME280;57052;55.602;38.096;2023-11-19T19:59:59;100850.53;;;-3.33;64.21
69780;BME280;57052;55.602;38.096;2023-11-19T20:02:25;100887.63;;;-3.17;63.91
69780;BME280;57052;55.602;38.096;2023-11-19T20:04:51;100881.81;;;-3.20;63.83
69780;BME280;57052;55.602;38.096;2023-11-19T20:07:17;100866.59;;;-3.27;63.37
69780;BME280;57052;55.602;38.096;2023-11-19T20:09:43;100877.50;;;-3.30;63.87
69780;BME280;57052;55.602;38.096;2023-11-19T20:12:09;100878.03;;;-3.26;63.57
69780;BME280;57052;55.602;38.096;2023-11-19T20:14:35;100877.00;;;-3.33;63.69
69780;BME280;57052;55.602;38.096;2023-11-19T20:17:00;100884.63;;;-3.30;63.48
69780;BME280;57052;55.602;38.096;2023-11-19T20:19:27;100874.22;;;-3.32;63.51
69780;BME280;57052;55.602;38.096;2023-11-19T20:21:53;100864.59;;;-3.41;63.84
69780;BME280;57052;55.602;38.096;2023-11-19T20:24:18;100876.19;;;-3.34;63.59
69780;BME280;57052;55.602;38.096;2023-11-19T20:26:44;100870.91;;;-3.34;63.22
69780;BME280;57052;55.602;38.096;2023-11-19T20:29:10;100866.06;;;-3.38;63.86
69780;BME280;57052;55.602;38.096;2023-11-19T20:31:40;100872.06;;;-3.36;63.55
69780;BME280;57052;55.602;38.096;2023-11-19T20:34:07;100878.00;;;-3.34;63.72
69780;BME280;57052;55.602;38.096;2023-11-19T20:36:33;100867.22;;;-3.41;63.93
69780;BME280;57052;55.602;38.096;2023-11-19T20:38:58;100859.97;;;-3.47;63.90
69780;BME280;57052;55.602;38.096;2023-11-19T20:41:24;100867.75;;;-3.37;63.93
69780;BME280;57052;55.602;38.096;2023-11-19T20:43:50;100865.28;;;-3.39;63.59
69780;BME280;57052;55.602;38.096;2023-11-19T20:46:18;100856.00;;;-3.43;63.81
69780;BME280;57052;55.602;38.096;2023-11-19T20:48:43;100858.13;;;-3.38;63.66
69780;BME280;57052;55.602;38.096;2023-11-19T20:51:09;100859.97;;;-3.39;63.87
69780;BME280;57052;55.602;38.096;2023-11-19T20:53:35;100840.47;;;-3.46;63.89
69780;BME280;57052;55.602;38.096;2023-11-19T20:56:02;100846.06;;;-3.41;64.08
69780;BME280;57052;55.602;38.096;2023-11-19T20:58:28;100844.25;;;-3.40;64.14
69780;BME280;57052;55.602;38.096;2023-11-19T21:00:54;100849.53;;;-3.40;63.94
69780;BME280;57052;55.602;38.096;2023-11-19T21:03:19;100839.13;;;-3.42;64.12
69780;BME280;57052;55.602;38.096;2023-11-19T21:05:45;100835.66;;;-3.42;63.94
69780;BME280;57052;55.602;38.096;2023-11-19T21:08:23;100829.19;;;-3.48;63.98
69780;BME280;57052;55.602;38.096;2023-11-19T21:10:49;100822.59;;;-3.44;64.20
69780;BME280;57052;55.602;38.096;2023-11-19T21:13:17;100823.75;;;-3.46;64.39
69780;BME280;57052;55.602;38.096;2023-11-19T21:15:44;100821.44;;;-3.41;63.99
69780;BME280;57052;55.602;38.096;2023-11-19T21:18:13;100834.50;;;-3.40;64.05
69780;BME280;57052;55.602;38.096;2023-11-19T21:20:38;100828.03;;;-3.45;64.09
69780;BME280;57052;55.602;38.096;2023-11-19T21:23:07;100815.97;;;-3.48;64.08
69780;BME280;57052;55.602;38.096;2023-11-19T21:25:33;100836.16;;;-3.39;64.17
69780;BME280;57052;55.602;38.096;2023-11-19T21:27:59;100830.88;;;-3.39;64.24
69780;BME280;57052;55.602;38.096;2023-11-19T21:30:25;100826.38;;;-3.38;64.26
69780;BME280;57052;55.602;38.096;2023-11-19T21:32:51;100827.22;;;-3.38;63.92
69780;BME280;57052;55.602;38.096;2023-11-19T21:35:18;100817.63;;;-3.39;64.25
69780;BME280;57052;55.602;38.096;2023-11-19T21:37:43;100815.66;;;-3.37;64.34
69780;BME280;57052;55.602;38.096;2023-11-19T21:40:09;100817.47;;;-3.37;63.98
69780;BME280;57052;55.602;38.096;2023-11-19T21:42:36;100812.81;;;-3.43;64.26
69780;BME280;57052;55.602;38.096;2023-11-19T21:45:03;100816.16;;;-3.41;64.08
69780;BME280;57052;55.602;38.096;2023-11-19T21:47:29;100793.16;;;-3.49;64.05
69780;BME280;57052;55.602;38.096;2023-11-19T21:49:54;100813.16;;;-3.38;63.65
69780;BME280;57052;55.602;38.096;2023-11-19T21:52:20;100805.06;;;-3.37;63.82
69780;BME280;57052;55.602;38.096;2023-11-19T21:54:46;100763.53;;;-3.60;63.90
69780;BME280;57052;55.602;38.096;2023-11-19T21:57:12;100760.75;;;-3.59;64.20
69780;BME280;57052;55.602;38.096;2023-11-19T21:59:37;100755.47;;;-3.59;63.97
69780;BME280;57052;55.602;38.096;2023-11-19T22:02:05;100785.72;;;-3.37;64.06
69780;BME280;57052;55.602;38.096;2023-11-19T22:04:34;100791.66;;;-3.35;64.04
69780;BME280;57052;55.602;38.096;2023-11-19T22:07:00;100787.69;;;-3.31;64.07
69780;BME280;57052;55.602;38.096;2023-11-19T22:09:26;100787.53;;;-3.30;64.35
69780;BME280;57052;55.602;38.096;2023-11-19T22:11:52;100775.78;;;-3.35;64.38
69780;BME280;57052;55.602;38.096;2023-11-19T22:14:17;100771.63;;;-3.38;64.09
69780;BME280;57052;55.602;38.096;2023-11-19T22:16:43;100761.09;;;-3.46;63.98
69780;BME280;57052;55.602;38.096;2023-11-19T22:19:11;100777.91;;;-3.31;64.34
69780;BME280;57052;55.602;38.096;2023-11-19T22:21:36;100760.22;;;-3.38;64.29
69780;BME280;57052;55.602;38.096;2023-11-19T22:24:03;100773.44;;;-3.30;63.99
69780;BME280;57052;55.602;38.096;2023-11-19T22:26:29;100769.31;;;-3.33;63.80
69780;BME280;57052;55.602;38.096;2023-11-19T22:28:55;100778.09;;;-3.32;63.97
69780;BME280;57052;55.602;38.096;2023-11-19T22:31:21;100766.53;;;-3.39;64.04
69780;BME280;57052;55.602;38.096;2023-11-19T22:33:47;100771.31;;;-3.35;64.30
69780;BME280;57052;55.602;38.096;2023-11-19T22:36:14;100774.94;;;-3.36;63.88
69780;BME280;57052;55.602;38.096;2023-11-19T22:38:40;100763.38;;;-3.43;64.03
69780;BME280;57052;55.602;38.096;2023-11-19T22:41:06;100754.97;;;-3.46;64.33
69780;BME280;57052;55.602;38.096;2023-11-19T22:43:31;100763.56;;;-3.36;64.17
69780;BME280;57052;55.602;38.096;2023-11-19T22:45:58;100767.19;;;-3.37;64.13